sensor_id;sensor_type;location;lat;lon;timestamp;P1;durP1;ratioP1;P2;durP2;ratioP2
38899;SDS011;24660;43.238;26.576;2022-07-29T12:34:33;17.60;;;16.30;;
38899;SDS011;24660;43.238;26.576;2022-07-29T12:36:59;17.42;;;16.23;;
38899;SDS011;24660;43.238;26.576;2022-07-29T12:39:26;17.63;;;16.42;;
38899;SDS011;24660;43.238;26.576;2022-07-29T12:41:52;18.35;;;17.05;;
38899;SDS011;24660;43.238;26.576;2022-07-29T12:44:18;18.05;;;16.75;;
38899;SDS011;24660;43.238;26.576;2022-07-29T12:46:44;17.23;;;16.02;;
38899;SDS011;24660;43.238;26.576;2022-07-29T12:49:21;18.27;;;16.98;;
38899;SDS011;24660;43.238;26.576;2022-07-29T12:51:47;17.80;;;16.60;;
38899;SDS011;24660;43.238;26.576;2022-07-29T12:54:13;17.55;;;16.35;;
38899;SDS011;24660;43.238;26.576;2022-07-29T12:56:40;16.73;;;15.60;;
38899;SDS011;24660;43.238;26.576;2022-07-29T13:00:57;18.27;;;16.88;;
38899;SDS011;24660;43.238;26.576;2022-07-29T13:03:25;18.33;;;17.02;;
38899;SDS011;24660;43.238;26.576;2022-07-29T13:05:51;18.08;;;16.77;;
38899;SDS011;24660;43.238;26.576;2022-07-29T13:08:17;18.20;;;16.90;;
38899;SDS011;24660;43.238;26.576;2022-07-29T13:10:45;18.17;;;16.88;;
38899;SDS011;24660;43.238;26.576;2022-07-29T13:13:11;17.50;;;16.23;;
38899;SDS011;24660;43.238;26.576;2022-07-29T13:15:40;17.95;;;16.65;;
38899;SDS011;24660;43.238;26.576;2022-07-29T13:18:40;18.13;;;16.83;;
38899;SDS011;24660;43.238;26.576;2022-07-29T13:20:57;17.38;;;16.17;;
38899;SDS011;24660;43.238;26.576;2022-07-29T13:23:36;17.33;;;16.13;;
38899;SDS011;24660;43.238;26.576;2022-07-29T13:26:06;17.17;;;15.98;;
38899;SDS011;24660;43.238;26.576;2022-07-29T13:28:32;17.48;;;16.20;;
38899;SDS011;24660;43.238;26.576;2022-07-29T13:30:59;17.85;;;16.55;;
38899;SDS011;24660;43.238;26.576;2022-07-29T13:33:24;17.25;;;16.05;;
38899;SDS011;24660;43.238;26.576;2022-07-29T13:35:50;17.60;;;16.30;;
38899;SDS011;24660;43.238;26.576;2022-07-29T13:38:15;17.45;;;16.25;;
38899;SDS011;24660;43.238;26.576;2022-07-29T13:40:41;17.00;;;15.80;;
38899;SDS011;24660;43.238;26.576;2022-07-29T13:43:08;17.83;;;16.52;;
38899;SDS011;24660;43.238;26.576;2022-07-29T13:48:00;16.98;;;15.77;;
38899;SDS011;24660;43.238;26.576;2022-07-29T13:50:26;17.48;;;16.27;;
38899;SDS011;24660;43.238;26.576;2022-07-29T13:52:51;16.92;;;15.73;;
38899;SDS011;24660;43.238;26.576;2022-07-29T13:55:17;17.60;;;16.30;;
38899;SDS011;24660;43.238;26.576;2022-07-29T13:57:43;17.60;;;16.30;;
38899;SDS011;24660;43.238;26.576;2022-07-29T14:00:09;17.20;;;16.00;;
38899;SDS011;24660;43.238;26.576;2022-07-29T14:02:35;17.50;;;16.25;;
38899;SDS011;24660;43.238;26.576;2022-07-29T14:05:03;17.27;;;16.08;;
38899;SDS011;24660;43.238;26.576;2022-07-29T14:07:30;17.70;;;16.45;;
38899;SDS011;24660;43.238;26.576;2022-07-29T14:09:55;17.35;;;16.15;;
38899;SDS011;24660;43.238;26.576;2022-07-29T14:12:21;17.13;;;15.93;;
38899;SDS011;24660;43.238;26.576;2022-07-29T14:14:47;17.15;;;15.95;;
38899;SDS011;24660;43.238;26.576;2022-07-29T14:17:13;17.25;;;16.05;;
38899;SDS011;24660;43.238;26.576;2022-07-29T14:19:39;16.83;;;15.63;;
38899;SDS011;24660;43.238;26.576;2022-07-29T14:22:05;17.60;;;16.40;;
38899;SDS011;24660;43.238;26.576;2022-07-29T14:24:32;16.42;;;15.32;;
38899;SDS011;24660;43.238;26.576;2022-07-29T14:26:58;17.05;;;15.85;;
38899;SDS011;24660;43.238;26.576;2022-07-29T14:29:24;16.90;;;15.70;;
38899;SDS011;24660;43.238;26.576;2022-07-29T14:31:49;16.88;;;15.68;;
38899;SDS011;24660;43.238;26.576;2022-07-29T14:34:17;17.13;;;15.93;;
38899;SDS011;24660;43.238;26.576;2022-07-29T14:36:43;17.17;;;15.98;;
38899;SDS011;24660;43.238;26.576;2022-07-29T14:39:09;16.50;;;15.40;;
38899;SDS011;24660;43.238;26.576;2022-07-29T14:41:34;16.52;;;15.43;;
38899;SDS011;24660;43.238;26.576;2022-07-29T14:44:00;16.20;;;15.10;;
38899;SDS011;24660;43.238;26.576;2022-07-29T14:46:26;16.45;;;15.35;;
38899;SDS011;24660;43.238;26.576;2022-07-29T14:48:52;16.23;;;15.13;;
38899;SDS011;24660;43.238;26.576;2022-07-29T14:51:17;16.08;;;14.98;;
38899;SDS011;24660;43.238;26.576;2022-07-29T14:53:43;17.08;;;15.88;;
38899;SDS011;24660;43.238;26.576;2022-07-29T14:56:08;16.55;;;15.45;;
38899;SDS011;24660;43.238;26.576;2022-07-29T14:58:34;16.50;;;15.40;;
38899;SDS011;24660;43.238;26.576;2022-07-29T15:01:00;16.30;;;15.20;;
38899;SDS011;24660;43.238;26.576;2022-07-29T15:03:26;16.85;;;15.68;;
38899;SDS011;24660;43.238;26.576;2022-07-29T15:05:53;17.05;;;15.85;;
38899;SDS011;24660;43.238;26.576;2022-07-29T15:08:18;16.92;;;15.73;;
38899;SDS011;24660;43.238;26.576;2022-07-29T15:10:44;16.88;;;15.68;;
38899;SDS011;24660;43.238;26.576;2022-07-29T15:13:10;16.58;;;15.48;;
38899;SDS011;24660;43.238;26.576;2022-07-29T15:15:35;17.17;;;15.98;;
38899;SDS011;24660;43.238;26.576;2022-07-29T15:18:01;16.40;;;15.30;;
38899;SDS011;24660;43.238;26.576;2022-07-29T15:20:26;16.80;;;15.60;;
38899;SDS011;24660;43.238;26.576;2022-07-29T15:22:52;16.88;;;15.68;;
38899;SDS011;24660;43.238;26.576;2022-07-29T15:25:20;16.67;;;15.52;;
38899;SDS011;24660;43.238;26.576;2022-07-29T15:27:46;16.58;;;15.48;;
38899;SDS011;24660;43.238;26.576;2022-07-29T15:30:11;16.77;;;15.57;;
38899;SDS011;24660;43.238;26.576;2022-07-29T15:32:37;16.15;;;15.05;;
38899;SDS011;24660;43.238;26.576;2022-07-29T15:35:03;16.70;;;15.60;;
38899;SDS011;24660;43.238;26.576;2022-07-29T15:37:28;16.88;;;15.77;;
38899;SDS011;24660;43.238;26.576;2022-07-29T15:39:54;16.75;;;15.65;;
38899;SDS011;24660;43.238;26.576;2022-07-29T15:42:19;16.95;;;15.75;;
38899;SDS011;24660;43.238;26.576;2022-07-29T15:44:45;16.83;;;15.63;;
38899;SDS011;24660;43.238;26.576;2022-07-29T15:47:10;16.60;;;15.48;;
38899;SDS011;24660;43.238;26.576;2022-07-29T15:49:37;17.10;;;15.90;;
38899;SDS011;24660;43.238;26.576;2022-07-29T15:52:05;16.77;;;15.68;;
38899;SDS011;24660;43.238;26.576;2022-07-29T15:54:32;16.73;;;15.63;;
38899;SDS011;24660;43.238;26.576;2022-07-29T15:57:03;16.85;;;15.65;;
38899;SDS011;24660;43.238;26.576;2022-07-29T15:59:29;16.67;;;15.57;;
38899;SDS011;24660;43.238;26.576;2022-07-29T16:01:55;16.27;;;15.18;;
38899;SDS011;24660;43.238;26.576;2022-07-29T16:04:20;16.95;;;15.75;;
38899;SDS011;24660;43.238;26.576;2022-07-29T16:06:46;16.95;;;15.75;;
38899;SDS011;24660;43.238;26.576;2022-07-29T16:09:13;16.90;;;15.70;;
38899;SDS011;24660;43.238;26.576;2022-07-29T16:11:39;16.77;;;15.63;;
38899;SDS011;24660;43.238;26.576;2022-07-29T16:14:05;16.73;;;15.60;;
38899;SDS011;24660;43.238;26.576;2022-07-29T16:16:31;16.55;;;15.45;;
38899;SDS011;24660;43.238;26.576;2022-07-29T16:18:56;16.63;;;15.52;;
38899;SDS011;24660;43.238;26.576;2022-07-29T16:21:22;16.63;;;15.52;;
38899;SDS011;24660;43.238;26.576;2022-07-29T16:23:48;15.77;;;14.70;;
38899;SDS011;24660;43.238;26.576;2022-07-29T16:26:13;16.48;;;15.38;;
38899;SDS011;24660;43.238;26.576;2022-07-29T16:28:39;16.75;;;15.55;;
38899;SDS011;24660;43.238;26.576;2022-07-29T16:31:04;16.70;;;15.60;;
38899;SDS011;24660;43.238;26.576;2022-07-29T16:33:30;16.83;;;15.63;;
38899;SDS011;24660;43.238;26.576;2022-07-29T16:35:56;16.58;;;15.48;;
38899;SDS011;24660;43.238;26.576;2022-07-29T16:38:21;16.80;;;15.68;;
38899;SDS011;24660;43.238;26.576;2022-07-29T16:40:47;17.38;;;16.17;;
38899;SDS011;24660;43.238;26.576;2022-07-29T16:43:12;17.40;;;16.20;;
38899;SDS011;24660;43.238;26.576;2022-07-29T16:45:38;16.17;;;15.07;;
38899;SDS011;24660;43.238;26.576;2022-07-29T16:48:03;17.30;;;16.10;;
38899;SDS011;24660;43.238;26.576;2022-07-29T16:50:29;16.98;;;15.77;;
38899;SDS011;24660;43.238;26.576;2022-07-29T16:52:55;17.25;;;16.05;;
38899;SDS011;24660;43.238;26.576;2022-07-29T16:55:22;17.35;;;16.15;;
38899;SDS011;24660;43.238;26.576;2022-07-29T16:57:48;17.48;;;16.27;;
38899;SDS011;24660;43.238;26.576;2022-07-29T17:00:17;17.27;;;16.08;;
38899;SDS011;24660;43.238;26.576;2022-07-29T17:02:43;17.35;;;16.15;;
38899;SDS011;24660;43.238;26.576;2022-07-29T17:05:08;18.10;;;16.80;;
38899;SDS011;24660;43.238;26.576;2022-07-29T17:07:35;18.00;;;16.70;;
38899;SDS011;24660;43.238;26.576;2022-07-29T17:10:01;17.73;;;16.42;;
38899;SDS011;24660;43.238;26.576;2022-07-29T17:12:29;18.02;;;16.73;;
38899;SDS011;24660;43.238;26.576;2022-07-29T17:14:56;18.15;;;16.85;;
38899;SDS011;24660;43.238;26.576;2022-07-29T17:17:21;18.20;;;16.90;;
38899;SDS011;24660;43.238;26.576;2022-07-29T17:19:47;17.75;;;16.45;;
38899;SDS011;24660;43.238;26.576;2022-07-29T17:22:12;18.25;;;16.92;;
38899;SDS011;24660;43.238;26.576;2022-07-29T17:24:37;18.25;;;16.95;;
38899;SDS011;24660;43.238;26.576;2022-07-29T17:27:03;18.23;;;16.92;;
38899;SDS011;24660;43.238;26.576;2022-07-29T17:29:29;18.25;;;16.95;;
38899;SDS011;24660;43.238;26.576;2022-07-29T17:31:54;18.27;;;16.98;;
38899;SDS011;24660;43.238;26.576;2022-07-29T17:34:21;18.30;;;16.98;;
38899;SDS011;24660;43.238;26.576;2022-07-29T17:36:47;19.10;;;17.70;;
38899;SDS011;24660;43.238;26.576;2022-07-29T17:39:12;18.63;;;17.23;;
38899;SDS011;24660;43.238;26.576;2022-07-29T17:41:38;18.70;;;17.30;;
38899;SDS011;24660;43.238;26.576;2022-07-29T17:44:05;17.95;;;16.65;;
38899;SDS011;24660;43.238;26.576;2022-07-29T17:46:32;18.52;;;17.13;;
38899;SDS011;24660;43.238;26.576;2022-07-29T17:48:57;18.13;;;16.83;;
38899;SDS011;24660;43.238;26.576;2022-07-29T17:51:23;17.98;;;16.67;;
38899;SDS011;24660;43.238;26.576;2022-07-29T17:53:50;17.88;;;16.58;;
38899;SDS011;24660;43.238;26.576;2022-07-29T17:56:17;18.02;;;16.73;;
38899;SDS011;24660;43.238;26.576;2022-07-29T17:58:43;18.38;;;16.98;;
38899;SDS011;24660;43.238;26.576;2022-07-29T18:01:11;18.80;;;17.40;;
38899;SDS011;24660;43.238;26.576;2022-07-29T18:03:37;19.23;;;17.83;;
38899;SDS011;24660;43.238;26.576;2022-07-29T18:06:02;18.60;;;17.20;;
38899;SDS011;24660;43.238;26.576;2022-07-29T18:08:28;18.38;;;17.08;;
38899;SDS011;24660;43.238;26.576;2022-07-29T18:10:53;18.35;;;17.05;;
38899;SDS011;24660;43.238;26.576;2022-07-29T18:13:19;18.25;;;16.95;;
38899;SDS011;24660;43.238;26.576;2022-07-29T18:15:45;18.35;;;17.02;;
38899;SDS011;24660;43.238;26.576;2022-07-29T18:18:12;18.30;;;16.92;;
38899;SDS011;24660;43.238;26.576;2022-07-29T18:20:39;18.63;;;17.23;;
38899;SDS011;24660;43.238;26.576;2022-07-29T18:23:05;18.75;;;17.35;;
38899;SDS011;24660;43.238;26.576;2022-07-29T18:25:31;18.65;;;17.25;;
38899;SDS011;24660;43.238;26.576;2022-07-29T18:27:56;18.80;;;17.40;;
38899;SDS011;24660;43.238;26.576;2022-07-29T18:30:22;18.88;;;17.48;;
38899;SDS011;24660;43.238;26.576;2022-07-29T18:32:47;19.02;;;17.63;;
38899;SDS011;24660;43.238;26.576;2022-07-29T18:35:15;18.65;;;17.25;;
38899;SDS011;24660;43.238;26.576;2022-07-29T18:37:40;18.90;;;17.50;;
38899;SDS011;24660;43.238;26.576;2022-07-29T18:40:07;18.80;;;17.40;;
38899;SDS011;24660;43.238;26.576;2022-07-29T18:42:34;18.70;;;17.30;;
38899;SDS011;24660;43.238;26.576;2022-07-29T18:45:00;18.40;;;17.10;;
38899;SDS011;24660;43.238;26.576;2022-07-29T18:47:26;18.55;;;17.15;;
38899;SDS011;24660;43.238;26.576;2022-07-29T18:49:51;18.75;;;17.35;;
38899;SDS011;24660;43.238;26.576;2022-07-29T18:52:16;18.73;;;17.33;;
38899;SDS011;24660;43.238;26.576;2022-07-29T18:54:42;18.65;;;17.25;;
38899;SDS011;24660;43.238;26.576;2022-07-29T18:57:07;18.55;;;17.15;;
38899;SDS011;24660;43.238;26.576;2022-07-29T18:59:33;18.73;;;17.33;;
38899;SDS011;24660;43.238;26.576;2022-07-29T19:02:00;18.80;;;17.40;;
38899;SDS011;24660;43.238;26.576;2022-07-29T19:04:26;18.58;;;17.17;;
38899;SDS011;24660;43.238;26.576;2022-07-29T19:06:52;18.45;;;17.05;;
38899;SDS011;24660;43.238;26.576;2022-07-29T19:09:17;18.58;;;17.17;;
38899;SDS011;24660;43.238;26.576;2022-07-29T19:11:43;18.58;;;17.17;;
38899;SDS011;24660;43.238;26.576;2022-07-29T19:14:08;18.63;;;17.23;;
38899;SDS011;24660;43.238;26.576;2022-07-29T19:16:34;18.75;;;17.35;;
38899;SDS011;24660;43.238;26.576;2022-07-29T19:18:59;19.05;;;17.65;;
38899;SDS011;24660;43.238;26.576;2022-07-29T19:21:25;19.15;;;17.75;;
38899;SDS011;24660;43.238;26.576;2022-07-29T19:23:51;19.50;;;18.00;;
38899;SDS011;24660;43.238;26.576;2022-07-29T19:26:17;18.73;;;17.33;;
38899;SDS011;24660;43.238;26.576;2022-07-29T19:28:44;19.02;;;17.63;;
38899;SDS011;24660;43.238;26.576;2022-07-29T19:31:11;18.95;;;17.55;;
38899;SDS011;24660;43.238;26.576;2022-07-29T19:33:37;18.88;;;17.48;;
38899;SDS011;24660;43.238;26.576;2022-07-29T19:36:03;19.15;;;17.67;;
38899;SDS011;24660;43.238;26.576;2022-07-29T19:38:29;18.58;;;17.17;;
38899;SDS011;24660;43.238;26.576;2022-07-29T19:40:55;18.77;;;17.38;;
38899;SDS011;24660;43.238;26.576;2022-07-29T19:43:24;18.77;;;17.38;;
38899;SDS011;24660;43.238;26.576;2022-07-29T19:45:49;19.27;;;17.77;;
38899;SDS011;24660;43.238;26.576;2022-07-29T19:48:15;18.83;;;17.42;;
38899;SDS011;24660;43.238;26.576;2022-07-29T19:50:40;18.92;;;17.52;;
38899;SDS011;24660;43.238;26.576;2022-07-29T19:53:06;18.95;;;17.55;;
38899;SDS011;24660;43.238;26.576;2022-07-29T19:55:33;19.13;;;17.67;;
38899;SDS011;24660;43.238;26.576;2022-07-29T19:57:58;19.15;;;17.65;;
38899;SDS011;24660;43.238;26.576;2022-07-29T20:00:24;19.27;;;17.77;;
38899;SDS011;24660;43.238;26.576;2022-07-29T20:02:50;18.83;;;17.42;;
38899;SDS011;24660;43.238;26.576;2022-07-29T20:05:16;18.90;;;17.50;;
38899;SDS011;24660;43.238;26.576;2022-07-29T20:07:41;18.73;;;17.33;;
38899;SDS011;24660;43.238;26.576;2022-07-29T20:10:07;19.10;;;17.63;;
38899;SDS011;24660;43.238;26.576;2022-07-29T20:12:34;19.23;;;17.73;;
38899;SDS011;24660;43.238;26.576;2022-07-29T20:15:01;19.23;;;17.73;;
38899;SDS011;24660;43.238;26.576;2022-07-29T20:17:27;19.02;;;17.52;;
38899;SDS011;24660;43.238;26.576;2022-07-29T20:19:53;18.85;;;17.35;;
38899;SDS011;24660;43.238;26.576;2022-07-29T20:22:20;18.50;;;17.10;;
38899;SDS011;24660;43.238;26.576;2022-07-29T20:24:45;18.85;;;17.38;;
38899;SDS011;24660;43.238;26.576;2022-07-29T20:27:11;18.85;;;17.40;;
38899;SDS011;24660;43.238;26.576;2022-07-29T20:29:37;18.58;;;17.17;;
38899;SDS011;24660;43.238;26.576;2022-07-29T20:32:05;18.55;;;17.15;;
38899;SDS011;24660;43.238;26.576;2022-07-29T20:34:31;19.17;;;17.67;;
38899;SDS011;24660;43.238;26.576;2022-07-29T20:36:57;18.83;;;17.40;;
38899;SDS011;24660;43.238;26.576;2022-07-29T20:39:23;18.27;;;16.88;;
38899;SDS011;24660;43.238;26.576;2022-07-29T20:41:49;18.38;;;16.98;;
38899;SDS011;24660;43.238;26.576;2022-07-29T20:44:15;18.58;;;17.17;;
38899;SDS011;24660;43.238;26.576;2022-07-29T20:46:42;18.40;;;17.00;;
38899;SDS011;24660;43.238;26.576;2022-07-29T20:49:08;18.17;;;16.77;;
38899;SDS011;24660;43.238;26.576;2022-07-29T20:51:34;18.08;;;16.67;;
38899;SDS011;24660;43.238;26.576;2022-07-29T20:53:59;17.92;;;16.52;;
